Time;durP1;ratioP1;P1;durP2;ratioP2;P2;SDS_P1;SDS_P2;PMS_P1;PMS_P2;Temp;Humidity;BMP_temperature;BMP_pressure;BME280_temperature;BME280_humidity;BME280_pressure;Samples;Min_cycle;Max_cycle;Signal;HPM_P1;HPM_P2
2022/03/17 00:01:22;;;;;;;32.57;24.73;;;;;;;3.57;100.00;96931.06;5051861;27;102296;-63
2022/03/17 00:03:48;;;;;;;31.03;24.07;;;;;;;3.56;100.00;96932.09;5053221;27;105399;-63
2022/03/17 00:06:17;;;;;;;31.30;23.63;;;;;;;3.51;100.00;96940.56;5049996;27;105349;-62
2022/03/17 00:08:44;;;;;;;34.77;25.73;;;;;;;3.58;100.00;96935.31;5049826;27;105784;-63
2022/03/17 00:11:11;;;;;;;33.70;25.37;;;;;;;3.54;100.00;96939.34;5050191;27;101904;-63
2022/03/17 00:13:39;;;;;;;31.53;23.93;;;;;;;3.58;100.00;96935.31;5050190;27;105175;-63
2022/03/17 00:16:09;;;;;;;34.57;23.60;;;;;;;3.49;100.00;96932.03;5049719;27;105394;-63
2022/03/17 00:18:38;;;;;;;33.80;24.97;;;;;;;3.56;100.00;96935.50;5050190;27;102027;-63
2022/03/17 00:21:06;;;;;;;35.43;24.47;;;;;;;3.52;100.00;96936.94;5050116;27;105270;-63
2022/03/17 00:23:33;;;;;;;33.13;26.43;;;;;;;3.61;100.00;96940.22;5049474;27;105269;-63
2022/03/17 00:26:00;;;;;;;34.80;26.00;;;;;;;3.68;100.00;96938.44;5053396;27;101939;-63
2022/03/17 00:28:27;;;;;;;41.73;29.30;;;;;;;3.71;100.00;96946.72;5049257;27;105264;-63
2022/03/17 00:30:54;;;;;;;39.43;28.73;;;;;;;3.75;100.00;96941.88;5049829;27;101754;-63
2022/03/17 00:33:23;;;;;;;38.27;27.90;;;;;;;3.66;100.00;96945.72;5049953;27;105421;-63
2022/03/17 00:35:52;;;;;;;40.20;28.60;;;;;;;3.45;100.00;96936.06;5049199;27;104127;-63
2022/03/17 00:38:20;;;;;;;39.00;28.07;;;;;;;3.47;100.00;96935.88;5049855;27;101962;-63
2022/03/17 00:40:48;;;;;;;39.43;28.53;;;;;;;3.41;100.00;96941.91;5049677;27;105220;-63
2022/03/17 00:43:18;;;;;;;37.30;27.07;;;;;;;3.52;100.00;96942.19;5049388;27;105418;-63
2022/03/17 00:45:48;;;;;;;39.67;29.60;;;;;;;3.57;100.00;96942.44;5049686;27;101861;-63
2022/03/17 00:48:15;;;;;;;42.17;30.30;;;;;;;3.58;100.00;96937.97;5052535;27;105492;-63
2022/03/17 00:50:42;;;;;;;39.77;29.20;;;;;;;3.46;100.00;96936.88;5049650;27;102082;-63
2022/03/17 00:53:11;;;;;;;35.23;27.00;;;;;;;3.31;100.00;96938.78;5049161;27;104828;-63
2022/03/17 00:55:38;;;;;;;41.90;30.67;;;;;;;3.24;100.00;96932.69;5048975;27;105487;-63
2022/03/17 00:58:05;;;;;;;44.03;32.10;;;;;;;3.38;100.00;96947.56;5049561;27;101861;-63
2022/03/17 01:00:32;;;;;;;39.07;28.30;;;;;;;3.24;100.00;96948.47;5049242;27;105202;-63
2022/03/17 01:03:01;;;;;;;36.73;27.33;;;;;;;3.19;100.00;96948.22;5048796;27;105351;-63
2022/03/17 01:05:28;;;;;;;39.53;29.77;;;;;;;3.24;100.00;96930.88;5049406;27;101988;-63
2022/03/17 01:07:55;;;;;;;38.67;28.23;;;;;;;3.28;100.00;96929.47;5032297;27;105954;-63
2022/03/17 01:10:24;;;;;;;40.23;28.10;;;;;;;3.30;100.00;96927.47;5053551;27;101809;-63
2022/03/17 01:12:53;;;;;;;39.33;28.33;;;;;;;3.39;100.00;96925.53;5050738;27;102890;-63
2022/03/17 01:15:21;;;;;;;36.93;28.23;;;;;;;3.43;100.00;96927.56;5048667;27;105898;-63
2022/03/17 01:17:51;;;;;;;36.07;26.63;;;;;;;3.45;100.00;96920.28;5049111;27;101901;-63
2022/03/17 01:20:18;;;;;;;38.13;27.60;;;;;;;3.32;100.00;96925.47;5048941;27;104752;-63
2022/03/17 01:22:45;;;;;;;34.00;25.67;;;;;;;3.26;100.00;96920.16;5048534;27;103800;-63
2022/03/17 01:25:12;;;;;;;33.60;24.37;;;;;;;3.33;100.00;96921.03;5049140;27;102080;-63
2022/03/17 01:27:40;;;;;;;34.83;25.60;;;;;;;3.36;100.00;96918.00;5048918;27;104709;-63
2022/03/17 01:30:09;;;;;;;35.87;25.60;;;;;;;3.16;100.00;96914.44;5053227;27;101710;-63
2022/03/17 01:32:38;;;;;;;33.77;24.90;;;;;;;3.01;100.00;96904.00;5049054;27;103497;-63
2022/03/17 01:35:07;;;;;;;32.00;23.47;;;;;;;3.11;100.00;96911.59;5048423;27;104096;-63
2022/03/17 01:37:35;;;;;;;31.07;23.97;;;;;;;3.10;100.00;96912.56;5048788;27;101801;-63
2022/03/17 01:40:03;;;;;;;31.83;23.87;;;;;;;3.02;100.00;96916.16;5048821;27;103960;-63
2022/03/17 01:42:30;;;;;;;34.07;26.43;;;;;;;3.10;100.00;96909.94;5047642;27;103863;-63
2022/03/17 01:44:59;;;;;;;33.60;24.07;;;;;;;3.11;100.00;96908.94;5048734;27;101909;-63
2022/03/17 01:47:29;;;;;;;34.17;24.33;;;;;;;3.12;100.00;96905.31;5048697;27;105588;-63
2022/03/17 01:49:57;;;;;;;30.37;22.87;;;;;;;3.09;100.00;96905.69;5048267;27;105480;-63
2022/03/17 01:52:24;;;;;;;28.87;23.30;;;;;;;3.03;100.00;96907.28;5052052;27;101915;-63
2022/03/17 01:54:53;;;;;;;32.43;23.57;;;;;;;3.05;100.00;96904.44;5047681;27;105806;-63
2022/03/17 01:57:20;;;;;;;32.00;24.23;;;;;;;3.11;100.00;96907.13;5048648;27;102262;-63
2022/03/17 01:59:49;;;;;;;31.13;23.60;;;;;;;3.09;100.00;96905.69;5049982;27;102400;-63
2022/03/17 02:02:18;;;;;;;31.23;23.20;;;;;;;3.11;100.00;96901.06;5048103;27;104064;-63
2022/03/17 02:04:47;;;;;;;30.10;22.53;;;;;;;3.00;100.00;96898.97;5048449;27;102010;-63
2022/03/17 02:07:15;;;;;;;30.70;22.30;;;;;;;2.88;100.00;96900.47;5048383;27;105435;-63
2022/03/17 02:09:44;;;;;;;29.87;22.70;;;;;;;2.98;100.00;96882.56;5047961;27;105707;-63
2022/03/17 02:14:58;;;;;;;32.47;23.83;;;;;;;3.02;100.00;96891.69;5051404;27;106597;-63
2022/03/17 02:17:30;;;;;;;33.90;23.67;;;;;;;3.01;100.00;96888.25;5048295;27;101872;-63
2022/03/17 02:19:58;;;;;;;30.33;23.17;;;;;;;3.11;100.00;96885.31;5048290;27;105229;-63
2022/03/17 02:22:26;;;;;;;31.53;23.20;;;;;;;2.94;100.00;96883.94;5049038;27;102851;-63
2022/03/17 02:27:45;;;;;;;31.07;22.97;;;;;;;2.90;100.00;96883.53;5049722;27;102823;-63
2022/03/17 02:30:14;;;;;;;29.93;22.93;;;;;;;2.90;100.00;96880.09;5047584;27;104323;-63
2022/03/17 02:32:41;;;;;;;33.37;25.37;;;;;;;2.94;100.00;96883.94;5049859;27;101742;-63
2022/03/17 02:35:11;;;;;;;31.57;24.00;;;;;;;2.88;100.00;96882.91;5049225;27;102320;-63
2022/03/17 02:37:38;;;;;;;29.70;22.90;;;;;;;2.96;100.00;96881.97;5052188;27;102766;-63
2022/03/17 02:40:10;;;;;;;31.87;23.77;;;;;;;3.06;100.00;96892.94;5049490;27;102890;-63
2022/03/17 02:42:38;;;;;;;32.03;23.93;;;;;;;3.08;100.00;96891.75;5049309;27;102831;-63
2022/03/17 02:45:07;;;;;;;31.43;24.23;;;;;;;3.08;100.00;96890.94;5049151;27;101889;-63
2022/03/17 02:47:35;;;;;;;36.33;24.97;;;;;;;3.07;100.00;96886.69;5049026;27;103166;-63
2022/03/17 02:50:04;;;;;;;32.27;25.27;;;;;;;3.01;100.00;96890.09;5048818;27;102540;-63
2022/03/17 02:52:31;;;;;;;32.37;23.53;;;;;;;2.96;100.00;96895.88;5049459;27;101781;-63
2022/03/17 02:54:58;;;;;;;33.73;24.93;;;;;;;2.95;100.00;96902.16;5049512;27;104057;-63
2022/03/17 02:57:27;;;;;;;36.17;26.10;;;;;;;3.10;100.00;96904.69;5052337;27;102111;-63
2022/03/17 02:59:54;;;;;;;37.13;27.27;;;;;;;3.21;100.00;96896.25;5056025;27;101794;-63
2022/03/17 03:02:22;;;;;;;34.57;25.53;;;;;;;3.29;100.00;96904.00;5052637;27;102488;-63
2022/03/17 03:04:50;;;;;;;33.83;25.30;;;;;;;3.29;100.00;96904.81;5051196;27;101979;-63
2022/03/17 03:07:17;;;;;;;35.37;25.47;;;;;;;3.34;100.00;96901.63;5050974;27;105325;-63
2022/03/17 03:09:45;;;;;;;36.20;26.33;;;;;;;3.24;100.00;96895.88;5051094;27;104953;-63
2022/03/17 03:12:12;;;;;;;34.97;25.07;;;;;;;3.35;100.00;96892.72;5051381;27;102308;-63
2022/03/17 03:14:41;;;;;;;32.80;23.80;;;;;;;3.29;100.00;96888.25;5051241;27;105224;-63
2022/03/17 03:17:08;;;;;;;30.80;23.50;;;;;;;3.20;100.00;96892.03;5050529;27;105822;-63
2022/03/17 03:19:36;;;;;;;31.63;23.17;;;;;;;3.15;100.00;96886.53;5051090;27;101834;-63
2022/03/17 03:22:04;;;;;;;31.13;23.37;;;;;;;3.06;100.00;96883.22;5053760;27;105275;-63
2022/03/17 03:24:31;;;;;;;28.87;23.23;;;;;;;3.09;100.00;96882.03;5051076;27;101838;-63
2022/03/17 03:26:58;;;;;;;31.73;23.97;;;;;;;3.10;100.00;96886.28;5050551;27;105417;-63
2022/03/17 03:29:26;;;;;;;30.50;23.97;;;;;;;3.11;100.00;96886.09;5050691;27;105372;-63
2022/03/17 03:32:03;;;;;;;30.23;23.70;;;;;;;3.07;100.00;96884.06;5050927;27;101879;-63
2022/03/17 03:34:31;;;;;;;32.10;24.03;;;;;;;3.07;100.00;96894.56;5050808;27;105547;-63
2022/03/17 03:39:44;;;;;;;31.70;23.53;;;;;;;3.13;100.00;96899.06;5050889;27;102053;-62
2022/03/17 03:42:11;;;;;;;31.30;22.63;;;;;;;3.09;100.00;96892.56;5053404;27;105011;-63
2022/03/17 03:44:39;;;;;;;30.20;23.00;;;;;;;3.08;100.00;96894.38;5052073;27;101783;-63
2022/03/17 03:47:08;;;;;;;31.63;24.77;;;;;;;3.07;100.00;96905.88;5052008;27;102865;-63
2022/03/17 03:49:38;;;;;;;34.27;24.93;;;;;;;3.05;100.00;96913.16;5051471;27;102476;-63
2022/03/17 03:52:07;;;;;;;33.27;23.97;;;;;;;2.96;100.00;96914.28;5052222;27;101705;-63
2022/03/17 03:54:34;;;;;;;30.57;22.93;;;;;;;2.96;100.00;96916.09;5052063;27;102552;-63
2022/03/17 03:57:02;;;;;;;29.73;22.60;;;;;;;3.01;100.00;96911.09;5051300;27;102701;-63
2022/03/17 03:59:29;;;;;;;30.20;23.77;;;;;;;2.98;100.00;96914.91;5050526;27;101861;-63
2022/03/17 04:01:58;;;;;;;30.33;24.23;;;;;;;2.95;100.00;96909.25;5051793;27;102387;-63
2022/03/17 04:04:28;;;;;;;30.90;23.47;;;;;;;2.89;100.00;96902.91;5053109;27;104124;-63
2022/03/17 04:06:58;;;;;;;30.53;23.57;;;;;;;2.95;100.00;96906.59;5049964;27;104124;-63
2022/03/17 04:09:27;;;;;;;35.33;25.83;;;;;;;3.01;100.00;96914.53;5051225;27;102569;-63
2022/03/17 04:11:56;;;;;;;37.53;25.90;;;;;;;3.09;100.00;96913.56;5050233;27;101885;-63
2022/03/17 04:14:24;;;;;;;34.17;25.30;;;;;;;2.99;100.00;96900.78;5050385;27;105540;-63
2022/03/17 04:16:51;;;;;;;31.83;24.50;;;;;;;3.06;100.00;96901.63;5049455;27;105049;-63
2022/03/17 04:19:19;;;;;;;32.70;25.00;;;;;;;3.12;100.00;96900.84;5050180;27;101842;-63
2022/03/17 04:21:49;;;;;;;36.97;25.90;;;;;;;3.16;100.00;96901.31;5050214;27;104781;-63
2022/03/17 04:24:17;;;;;;;36.17;25.93;;;;;;;3.15;100.00;96907.53;5051040;27;103177;-62
2022/03/17 04:26:44;;;;;;;37.47;26.00;;;;;;;3.18;100.00;96917.69;5052980;27;101846;-63
2022/03/17 04:29:12;;;;;;;36.50;27.90;;;;;;;3.18;100.00;96909.81;5049537;27;105328;-63
2022/03/17 04:31:41;;;;;;;35.73;26.83;;;;;;;3.17;100.00;96919.50;5050061;27;101789;-63
2022/03/17 04:34:09;;;;;;;33.03;25.77;;;;;;;3.24;100.00;96920.38;5050006;27;103773;-63
2022/03/17 04:36:37;;;;;;;34.07;25.80;;;;;;;3.32;100.00;96919.38;5049164;27;105707;-63
2022/03/17 04:39:10;;;;;;;34.23;24.80;;;;;;;3.29;100.00;96917.16;5049659;27;101914;-63
2022/03/17 04:41:39;;;;;;;32.50;24.43;;;;;;;3.27;100.00;96922.59;5049836;27;105229;-63
2022/03/17 04:44:07;;;;;;;34.53;25.70;;;;;;;3.27;100.00;96932.31;5050625;27;102476;-63
2022/03/17 04:46:34;;;;;;;36.63;25.60;;;;;;;3.18;100.00;96934.25;5049617;27;101917;-63
2022/03/17 04:49:02;;;;;;;33.30;25.87;;;;;;;3.17;100.00;96930.00;5052634;27;105480;-63
2022/03/17 04:51:29;;;;;;;33.53;25.43;;;;;;;3.18;100.00;96917.69;5050896;27;101960;-63
2022/03/17 04:53:56;;;;;;;32.23;24.60;;;;;;;3.05;100.00;96918.41;5049246;27;105207;-63
2022/03/17 04:56:25;;;;;;;31.00;24.13;;;;;;;3.05;100.00;96928.09;5049035;27;104145;-63
2022/03/17 04:58:52;;;;;;;32.47;22.87;;;;;;;2.96;100.00;96913.47;5049469;27;101924;-63
2022/03/17 05:01:19;;;;;;;30.07;23.10;;;;;;;2.92;100.00;96912.22;5049683;27;105264;-63
2022/03/17 05:03:47;;;;;;;30.83;23.13;;;;;;;2.91;100.00;96916.69;5048928;27;105497;-63
2022/03/17 05:06:16;;;;;;;28.33;23.03;;;;;;;2.75;100.00;96921.38;5049157;27;101997;-63
2022/03/17 05:08:44;;;;;;;34.90;25.23;;;;;;;2.80;100.00;96919.00;5049181;27;105709;-63
2022/03/17 05:11:13;;;;;;;35.80;25.67;;;;;;;2.95;100.00;96922.38;5052292;27;105263;-63
2022/03/17 05:13:42;;;;;;;33.93;24.87;;;;;;;2.96;100.00;96922.16;5049372;27;105600;-63
2022/03/17 05:16:09;;;;;;;33.77;25.17;;;;;;;3.04;100.00;96926.47;5047947;27;105273;-63
2022/03/17 05:18:37;;;;;;;33.43;24.27;;;;;;;2.99;100.00;96926.22;5048755;27;101983;-63
2022/03/17 05:21:03;;;;;;;31.47;23.83;;;;;;;2.99;100.00;96924.41;5049055;27;104012;-63
2022/03/17 05:23:31;;;;;;;32.60;25.20;;;;;;;3.07;100.00;96916.38;5048481;27;105964;-63
2022/03/17 05:25:58;;;;;;;32.50;23.97;;;;;;;3.05;100.00;96922.81;5049146;27;101815;-63
2022/03/17 05:28:25;;;;;;;31.37;23.77;;;;;;;3.05;100.00;96930.72;5048960;27;104085;-63
2022/03/17 05:31:00;;;;;;;32.27;23.33;;;;;;;2.95;100.00;96932.88;5048497;27;105488;-63
2022/03/17 05:33:27;;;;;;;32.90;24.80;;;;;;;2.88;100.00;96937.25;5052486;27;101768;-63
2022/03/17 05:35:56;;;;;;;29.43;23.33;;;;;;;2.86;100.00;96934.00;5048008;27;105347;-63
2022/03/17 05:38:24;;;;;;;31.07;22.83;;;;;;;3.02;100.00;96945.06;5048982;27;101878;-63
2022/03/17 05:40:53;;;;;;;30.60;23.67;;;;;;;3.20;100.00;96944.56;5049052;27;105805;-62
2022/03/17 05:43:46;;;;;;;33.50;24.87;;;;;;;3.14;100.00;96945.34;5048711;27;105206;-63
2022/03/17 05:46:15;;;;;;;32.00;23.93;;;;;;;3.08;100.00;96948.72;5048912;27;101938;-63
2022/03/17 05:48:41;;;;;;;32.20;24.13;;;;;;;3.07;100.00;96952.38;5049029;27;105580;-63
2022/03/17 05:51:08;;;;;;;32.57;25.93;;;;;;;3.07;100.00;96960.25;5048487;27;105967;-63
2022/03/17 05:53:35;;;;;;;33.50;24.40;;;;;;;3.19;100.00;96956.09;5052009;27;101821;-63
2022/03/17 05:56:02;;;;;;;32.03;24.60;;;;;;;3.19;100.00;96956.09;5048264;27;105060;-63
2022/03/17 05:58:29;;;;;;;30.67;24.47;;;;;;;3.21;100.00;96959.34;5048964;27;101880;-63
2022/03/17 06:01:00;;;;;;;31.03;23.97;;;;;;;3.17;100.00;96966.00;5048724;27;103999;-63
2022/03/17 06:03:28;;;;;;;31.90;24.37;;;;;;;3.21;100.00;96964.59;5048419;27;105562;-63
2022/03/17 06:05:55;;;;;;;32.27;24.13;;;;;;;3.28;100.00;96968.91;5048694;27;101975;-63
2022/03/17 06:08:23;;;;;;;32.80;25.07;;;;;;;3.29;100.00;96975.78;5036521;27;102475;-62
2022/03/17 06:10:50;;;;;;;31.67;23.33;;;;;;;3.40;100.00;96979.72;5027836;28;105605;-62
2022/03/17 06:14:06;;;;;;;36.33;25.83;;;;;;;3.53;100.00;96971.91;5029811;28;101766;-63
2022/03/17 06:16:33;;;;;;;32.07;24.77;;;;;;;3.61;100.00;96984.91;5031135;28;104832;-63
2022/03/17 06:19:01;;;;;;;34.43;26.20;;;;;;;3.60;100.00;96985.94;5028023;28;101977;-64
2022/03/17 06:21:41;;;;;;;32.97;25.77;;;;;;;3.60;100.00;96991.19;5027973;28;105130;-63
2022/03/17 06:24:08;;;;;;;38.50;27.90;;;;;;;3.59;100.00;96993.00;5027395;28;105458;-63
2022/03/17 06:26:35;;;;;;;34.07;27.17;;;;;;;3.50;100.00;96990.72;5029383;28;101913;-64
2022/03/17 06:29:02;;;;;;;36.70;27.17;;;;;;;3.65;100.00;96994.06;5027613;27;105145;-63
2022/03/17 06:31:36;;;;;;;35.17;27.37;;;;;;;3.70;100.00;96997.72;5027448;27;105744;-63
2022/03/17 06:34:06;;;;;;;34.83;27.60;;;;;;;3.89;100.00;96997.03;5027849;28;101942;-63
2022/03/17 06:36:34;;;;;;;38.63;29.60;;;;;;;3.86;100.00;96997.41;5027635;28;103833;-63
2022/03/17 06:39:08;;;;;;;39.03;29.90;;;;;;;3.94;100.00;96994.59;5039791;27;105441;-62
2022/03/17 06:42:05;;;;;;;38.17;29.13;;;;;;;4.25;100.00;96996.81;5048178;27;105733;-62
2022/03/17 06:45:03;;;;;;;38.70;30.10;;;;;;;4.27;100.00;97006.09;5049414;27;102883;-62
2022/03/17 06:47:30;;;;;;;39.83;29.77;;;;;;;4.32;100.00;97011.59;5027762;28;101888;-62
2022/03/17 06:50:26;;;;;;;37.43;30.03;;;;;;;4.42;100.00;97012.06;5027765;28;104813;-61
2022/03/17 06:52:55;;;;;;;35.70;28.07;;;;;;;4.39;100.00;97009.81;5026954;28;105149;-61
2022/03/17 06:55:22;;;;;;;37.97;29.37;;;;;;;4.50;100.00;97011.06;5027810;28;101880;-62
2022/03/17 06:57:49;;;;;;;37.97;29.03;;;;;;;4.58;100.00;97019.59;5027694;28;105060;-61
2022/03/17 07:00:46;;;;;;;33.77;27.20;;;;;;;4.53;100.00;97013.31;5027097;28;105661;-61
2022/03/17 07:03:12;;;;;;;34.57;27.33;;;;;;;4.60;100.00;97017.59;5032730;28;101805;-62
2022/03/17 07:05:41;;;;;;;32.53;25.60;;;;;;;4.39;100.00;97032.69;5026944;28;105175;-61
2022/03/17 07:08:09;;;;;;;30.53;25.83;;;;;;;4.41;100.00;97023.59;5027440;28;101834;-61
2022/03/17 07:10:44;;;;;;;33.10;26.83;;;;;;;4.29;100.00;97029.59;5027315;28;106317;-62
2022/03/17 07:13:28;;;;;;;37.37;28.20;;;;;;;4.30;100.00;97034.69;5027107;27;104084;-61
2022/03/17 07:15:56;;;;;;;35.87;28.03;;;;;;;4.34;100.00;97032.47;5042195;27;103122;-61
2022/03/17 07:18:22;;;;;;;38.07;29.77;;;;;;;4.54;100.00;97033.38;5046116;27;105559;-61
2022/03/17 07:20:56;;;;;;;34.63;27.63;;;;;;;4.49;100.00;97046.31;5027052;28;105614;-60
2022/03/17 07:23:23;;;;;;;35.27;27.80;;;;;;;4.57;100.00;97048.78;5028570;27;101997;-62
2022/03/17 07:25:50;;;;;;;39.10;29.17;;;;;;;4.76;100.00;97055.94;5016571;27;104769;-62
2022/03/17 07:28:18;;;;;;;36.77;29.20;;;;;;;4.92;100.00;97052.97;5046971;27;102013;-62
2022/03/17 07:30:56;;;;;;;39.33;30.53;;;;;;;4.92;100.00;97050.31;5029060;28;102454;-61
2022/03/17 07:33:23;;;;;;;37.30;29.13;;;;;;;4.99;100.00;97048.50;5029448;27;102457;-61
2022/03/17 07:35:50;;;;;;;41.17;29.73;;;;;;;5.00;100.00;97050.94;5028353;28;101840;-61
2022/03/17 07:38:18;;;;;;;35.77;27.63;;;;;;;4.87;100.00;97055.38;5027329;28;105145;-61
2022/03/17 07:41:01;;;;;;;34.57;28.43;;;;;;;5.08;100.00;97058.66;5028438;28;105620;-61
2022/03/17 07:43:29;;;;;;;39.33;29.97;;;;;;;5.20;100.00;97056.25;5032107;28;102111;-61
2022/03/17 07:46:15;;;;;;;38.10;29.27;;;;;;;5.09;100.00;97057.66;5032733;27;105131;-63
2022/03/17 07:49:01;;;;;;;38.73;30.97;;;;;;;5.21;100.00;97063.97;5034872;28;101852;-61
2022/03/17 07:51:54;;;;;;;39.43;30.17;;;;;;;5.21;100.00;97069.25;5030759;28;103466;-61
2022/03/17 07:54:23;;;;;;;35.13;28.60;;;;;;;5.28;100.00;97069.22;5029287;28;105313;-60
2022/03/17 07:56:50;;;;;;;37.43;29.20;;;;;;;5.16;100.00;97076.13;5031717;28;101801;-61
2022/03/17 07:59:17;;;;;;;37.53;28.80;;;;;;;5.29;100.00;97091.97;5030212;28;105456;-60
2022/03/17 08:01:44;;;;;;;35.27;29.30;;;;;;;5.21;100.00;97084.25;5029691;28;105618;-62
2022/03/17 08:04:12;;;;;;;39.90;29.00;;;;;;;5.19;100.00;97091.53;5041931;27;101776;-64
2022/03/17 08:06:38;;;;;;;35.40;28.40;;;;;;;5.41;100.00;97088.53;5033439;27;104867;-61
2022/03/17 08:09:06;;;;;;;36.37;28.50;;;;;;;5.52;100.00;97092.41;5053176;27;106237;-62
2022/03/17 08:11:52;;;;;;;37.10;26.90;;;;;;;5.52;100.00;97092.41;5049815;27;103658;-62
2022/03/17 08:14:46;;;;;;;36.20;27.73;;;;;;;5.65;100.00;97092.41;5041773;27;105684;-62
2022/03/17 08:17:14;;;;;;;35.03;27.00;;;;;;;5.86;100.00;97092.25;5048147;27;101992;-62
2022/03/17 08:19:41;;;;;;;31.63;26.37;;;;;;;5.95;100.00;97102.38;5050341;27;105068;-62
2022/03/17 08:22:09;;;;;;;30.63;26.20;;;;;;;5.96;100.00;97109.31;5048003;27;105781;-62
2022/03/17 08:24:36;;;;;;;34.60;27.50;;;;;;;6.01;100.00;97106.84;5035848;27;102262;-63
2022/03/17 08:27:05;;;;;;;34.70;28.03;;;;;;;6.22;100.00;97097.91;5034781;27;105200;-62
2022/03/17 08:29:33;;;;;;;35.43;28.77;;;;;;;6.41;100.00;97102.31;5033768;27;104552;-62
2022/03/17 08:32:02;;;;;;;33.90;27.50;;;;;;;6.58;100.00;97111.41;5033277;28;101973;-62
2022/03/17 08:34:30;;;;;;;34.33;27.40;;;;;;;6.54;100.00;97104.94;5028793;28;104311;-62
2022/03/17 08:36:59;;;;;;;31.33;27.27;;;;;;;6.51;100.00;97110.63;5029568;28;102002;-62
2022/03/17 08:39:26;;;;;;;32.87;26.03;;;;;;;6.54;100.00;97112.88;5030956;28;102257;-62
2022/03/17 08:42:08;;;;;;;30.53;26.37;;;;;;;6.58;100.00;97114.06;5029319;28;105766;-62
2022/03/17 08:50:47;;;;;;;30.67;24.97;;;;;;;7.09;100.00;97123.63;5029087;27;105601;-62
2022/03/17 08:53:16;;;;;;;30.73;25.10;;;;;;;6.98;100.00;97123.50;5028493;28;102908;-62
2022/03/17 08:55:43;;;;;;;31.37;25.20;;;;;;;7.06;100.00;97120.59;5032567;28;105578;-62
2022/03/17 08:58:13;;;;;;;27.40;23.90;;;;;;;7.20;100.00;97122.97;5036489;27;101865;-61
2022/03/17 09:04:06;;;;;;;28.50;23.40;;;;;;;7.30;100.00;97128.63;5036428;27;105489;-62
2022/03/17 09:06:36;;;;;;;26.47;22.97;;;;;;;7.35;100.00;97133.25;5049459;27;101879;-62
2022/03/17 09:09:05;;;;;;;28.40;24.10;;;;;;;7.18;100.00;97145.34;5031296;27;104766;-62
2022/03/17 09:11:34;;;;;;;29.30;24.47;;;;;;;7.16;100.00;97142.13;5028727;28;105126;-62
2022/03/17 09:14:05;;;;;;;28.77;23.60;;;;;;;7.15;100.00;97137.88;5030693;27;101860;-63
2022/03/17 09:16:33;;;;;;;29.77;24.77;;;;;;;7.20;100.00;97140.69;5029133;28;104915;-62
2022/03/17 09:19:00;;;;;;;27.07;23.53;;;;;;;7.58;100.00;97142.28;5043104;27;105083;-62
2022/03/17 09:21:28;;;;;;;29.43;24.33;;;;;;;7.54;100.00;97140.28;5050979;27;102951;-62
2022/03/17 09:23:55;;;;;;;29.67;23.40;;;;;;;7.75;100.00;97138.09;5045454;27;106344;-62
2022/03/17 09:26:22;;;;;;;29.70;23.87;;;;;;;8.16;100.00;97146.34;5049398;27;101958;-63
2022/03/17 09:28:51;;;;;;;30.03;24.83;;;;;;;8.27;100.00;97142.22;5039580;27;105624;-63
2022/03/17 09:31:23;;;;;;;27.57;22.97;;;;;;;8.02;100.00;97138.75;5036338;27;105626;-62
2022/03/17 09:33:50;;;;;;;30.13;23.50;;;;;;;8.17;100.00;97140.03;5049308;27;101868;-62
2022/03/17 09:36:19;;;;;;;28.93;23.80;;;;;;;7.81;100.00;97141.75;5047335;27;105078;-63
2022/03/17 09:39:39;;;;;;;29.50;23.33;;;;;;;8.14;100.00;97145.78;5041099;27;103700;-63
2022/03/17 09:41:35;;;;;;;27.37;23.67;;;;;;;8.02;100.00;97144.03;5031909;28;101751;-62
2022/03/17 09:44:15;;;;;;;26.10;23.30;;;;;;;8.50;100.00;97153.03;5043454;27;105804;-62
2022/03/17 09:46:45;;;;;;;31.43;23.53;;;;;;;8.31;100.00;97146.06;5050358;27;101652;-62
2022/03/17 09:49:12;;;;;;;28.47;24.07;;;;;;;8.62;100.00;97145.97;5048720;27;102422;-61
2022/03/17 09:52:05;;;;;;;27.47;23.10;;;;;;;8.75;100.00;97144.00;5049651;27;102634;-62
2022/03/17 09:54:35;;;;;;;31.27;23.57;;;;;;;8.38;100.00;97160.03;5030973;27;101872;-63
2022/03/17 09:57:02;;;;;;;26.87;22.47;;;;;;;8.22;100.00;97157.94;5041612;27;105778;-63
2022/03/17 09:59:31;;;;;;;31.00;23.43;;;;;;;7.87;100.00;97162.06;5047832;27;103409;-62
2022/03/17 10:02:01;;;;;;;31.30;23.70;;;;;;;8.24;100.00;97151.41;5040282;27;101968;-62
2022/03/17 10:04:31;;;;;;;28.73;23.30;;;;;;;8.49;100.00;97161.97;5028596;27;103238;-62
2022/03/17 10:06:58;;;;;;;25.27;22.43;;;;;;;8.67;100.00;97164.69;5039796;27;101901;-62
2022/03/17 10:09:26;;;;;;;27.60;22.53;;;;;;;8.78;100.00;97163.94;5050093;27;102873;-62
2022/03/17 10:12:08;;;;;;;28.90;22.83;;;;;;;9.26;100.00;97165.63;5040001;27;104981;-62
2022/03/17 10:15:01;;;;;;;26.50;23.17;;;;;;;8.74;100.00;97160.13;5029961;28;101916;-62
2022/03/17 10:17:32;;;;;;;30.63;23.43;;;;;;;9.06;100.00;97164.25;5043344;27;105215;-62
2022/03/17 10:20:34;;;;;;;27.17;22.80;;;;;;;9.09;100.00;97158.47;5047809;27;104119;-62
2022/03/17 10:23:02;;;;;;;28.13;22.63;;;;;;;9.46;100.00;97154.75;5030173;27;101720;-62
2022/03/17 10:25:31;;;;;;;25.10;22.27;;;;;;;9.73;100.00;97166.63;5032213;27;105315;-62
2022/03/17 10:27:59;;;;;;;26.53;21.83;;;;;;;10.03;100.00;97168.22;5028289;28;101938;-62
2022/03/17 10:30:36;;;;;;;25.60;22.17;;;;;;;10.18;100.00;97168.63;5029214;27;105102;-62
2022/03/17 10:33:09;;;;;;;24.50;21.90;;;;;;;10.23;100.00;97162.63;5027560;28;105799;-62
2022/03/17 10:35:38;;;;;;;29.07;21.83;;;;;;;10.10;100.00;97170.81;5031792;27;101953;-62
2022/03/17 10:38:12;;;;;;;24.50;21.03;;;;;;;9.47;100.00;97172.31;5048246;27;105420;-61
2022/03/17 10:41:02;;;;;;;24.33;21.67;;;;;;;9.87;100.00;97170.75;5046234;27;106860;-63
2022/03/17 10:43:33;;;;;;;26.00;20.77;;;;;;;10.24;100.00;97175.69;5048379;27;102050;-63
2022/03/17 10:46:08;;;;;;;24.43;20.80;;;;;;;9.88;100.00;97167.84;5037618;27;104915;-63
2022/03/17 10:48:53;;;;;;;31.70;21.73;;;;;;;9.53;100.00;97160.78;5030696;27;105822;-63
2022/03/17 10:51:41;;;;;;;24.33;20.97;;;;;;;9.80;100.00;97162.03;5028094;27;105324;-63
2022/03/17 10:54:10;;;;;;;21.90;19.00;;;;;;;9.81;100.00;97161.03;5028196;28;103411;-63
2022/03/17 10:56:39;;;;;;;25.77;20.27;;;;;;;10.03;100.00;97167.44;5030221;27;101861;-63
2022/03/17 10:59:07;;;;;;;23.60;20.33;;;;;;;10.14;100.00;97164.03;5027631;27;104743;-63
2022/03/17 11:01:39;;;;;;;23.63;20.33;;;;;;;10.20;100.00;97163.91;5041185;27;105877;-63
2022/03/17 11:04:08;;;;;;;24.43;20.23;;;;;;;10.32;100.00;97169.25;5048344;27;101746;-63
2022/03/17 11:06:38;;;;;;;22.83;19.10;;;;;;;10.06;100.00;97167.00;5046173;27;105396;-63
2022/03/17 11:09:08;;;;;;;24.20;20.70;;;;;;;10.36;100.00;97170.41;5047299;27;105302;-63
2022/03/17 11:11:37;;;;;;;26.07;21.50;;;;;;;10.25;100.00;97166.69;5047292;27;102273;-62
2022/03/17 11:14:15;;;;;;;25.10;21.13;;;;;;;10.91;100.00;97161.81;5045666;27;105517;-62
2022/03/17 11:16:46;;;;;;;25.20;20.07;;;;;;;11.07;100.00;97163.78;5036462;27;101877;-62
2022/03/17 11:19:17;;;;;;;22.50;19.07;;;;;;;11.13;100.00;97159.38;5032731;28;102327;-62
2022/03/17 11:21:49;;;;;;;22.13;18.73;;;;;;;10.62;100.00;97164.63;5034301;27;106397;-62
2022/03/17 11:24:21;;;;;;;22.00;18.77;;;;;;;10.69;100.00;97160.00;5051160;27;101824;-62
2022/03/17 11:26:51;;;;;;;21.57;18.73;;;;;;;10.85;100.00;97161.97;5049622;27;105253;-62
2022/03/17 11:29:21;;;;;;;20.97;18.73;;;;;;;10.39;100.00;97172.59;5052235;27;102763;-62
2022/03/17 11:32:09;;;;;;;21.53;18.97;;;;;;;10.81;100.00;97160.81;5036416;27;101897;-62
2022/03/17 11:34:49;;;;;;;20.37;17.97;;;;;;;11.17;100.00;97156.00;5054057;27;106260;-62
2022/03/17 11:37:27;;;;;;;21.53;18.37;;;;;;;11.10;100.00;97151.84;5049340;27;101811;-62
2022/03/17 11:39:58;;;;;;;22.93;18.60;;;;;;;10.64;100.00;97149.25;5050921;27;104995;-62
2022/03/17 11:42:37;;;;;;;20.03;17.40;;;;;;;10.80;100.00;97148.56;5049465;27;105313;-62